Gakona, AK

11:48 PM AKDT on July 04, 2015 (GMT -0800)
Gulkana | | Change Station
CLOSE
Current Station
Airport
Location: Gulkana,
Elevation: 1578 ft
Nearby Weather Stations

Elev 1578 ft 62.16 °N, 145.46 °W | Updated 55 minutes ago

Overcast
Overcast
58 °F
Feels Like 58 °F
N
13
Wind Variable Wind from SSE

Today
High -- | Low -- °F
--% Chance of Precip.
Yesterday
High -- | Low -- °F
Precip. -- in
4:00 AM 11:30 PM
Waning Gibbous, 87% visible
Pressure 30.20 in
Visibility -9999.0 miles
Clouds Overcast 9500 ft
Dew Point 43 °F
Humidity 58%
Rainfall 0.00 in
Snow Depth Not available.
UV 0 out of 12
Pollen Not available.
Air Quality Not available.
Flu Activity Not available.
METAR PAGK 050653Z AUTO 16011KT OVC095 14/06 A3020 RMK AO2 SLP225 T01440061 TSNO $

More Conditions Fewer Conditions

Pressure 30.20 in
Visibility -9999.0 miles
Clouds Overcast 9500 ft
Dew Point 43 °F
Humidity 58%
Rainfall 0.00 in
Snow Depth Not available.
UV 0 out of 12
Pollen Not available.
Air Quality Not available.
Flu Activity Not available.
METAR PAGK 050653Z AUTO 16011KT OVC095 14/06 A3020 RMK AO2 SLP225 T01440061 TSNO $

More Conditions Fewer Conditions

10-Day Weather Forecast

×

Almanac

Astronomy

Jul. 04, 2015 Rise Set
Actual Time
Civil Twilight
Nautical Twilight
Astronomical Twilight
Moon
Length of Visible Light
Length of Day
Tomorrow will be .
, % of the Moon is Illuminated

Today's Extremes

State Highs State Lows

Community

WunderPhotos

Upload Photos

1,835,215 photos uploaded!

WunderBlogs® & News

Nearby

Air Quality

  Air Quality AQ Index Pollutant
Not available.

Snow Depth

Station Depth Elevation

Earthquake Activity

City Distance Mag. Time & Date
Minimum magnitude displayed is 2.5.

Coastal Water Temperatures

Place Temperature

Stations

Nearby Weather Stations

Station Location Temp. Windchill Dew Point Humidity Wind Precip. Elev Updated Type